Weather History for Worthington, MN

Change the Weather History Date:

Monday, January 7, 2013

  Actual Average Record
Temperature  
Mean Temperature 26 °F -  
Max Temperature 32 °F 22 °F 53 °F (2003)
Min Temperature 19 °F 7 °F -24 °F (1988)
Degree Days  
Heating Degree Days 40    
Moisture  
Dew Point 17 °F    
Average Humidity 69    
Maximum Humidity 86    
Minimum Humidity 64    
Precipitation  
Precipitation 0.00 in - - ()
Sea Level Pressure  
Sea Level Pressure 29.93 in    
Wind  
Wind Speed 18 mph (SW)    
Max Wind Speed 26 mph    
Max Gust Speed 36 mph    
Visibility 10 miles    
Events      
Averages and records for this station are not official NWS values.
T = Trace of Precipitation, MM = Missing Value Source: NWS Daily Summary

Daily Weather History Graph

Daily Weather History Graph

Search for Another Location

Airport:

Trip Planner

Search our weather history database for the weather conditions in past years. The results will help you decide how hot, cold, wet, or windy it might be!

Date:

Astronomy

Jan. 07, 2013 Rise Set
Actual Time 7:55 AM CST 5:02 PM CST
Civil Twilight 7:23 AM CST 5:34 PM CST
Nautical Twilight 6:47 AM CST 6:10 PM CST
Astronomical Twilight 6:12 AM CST 6:45 PM CST
Moon 3:18 AM CST (1/7) 1:15 PM CST (1/7)
Length of Visible Light 10h 11m
Length of Day
9h 06m
Waning Crescent, 22% of the Moon is Illuminated
Jan 7
Waning Crescent
Jan 11
New
Jan 18
First Quarter
Jan 26
Full
Feb 3
Last Quarter

Hourly Weather History & Observations

Time (CST) Temp. Windchill Dew Point Humidity Pressure Visibility Wind Dir Wind Speed Gust Speed Precip Events Conditions
12:15 AM 26.6 °F 11.4 °F 15.8 °F 64% 29.91 in 10.0 mi South 25.3 mph 31.1 mph N/A   Clear
12:35 AM 26.6 °F 11.1 °F 15.8 °F 64% 29.90 in 10.0 mi South 26.5 mph 32.2 mph N/A   Clear
12:55 AM 26.6 °F 11.7 °F 15.8 °F 64% 29.90 in 10.0 mi SSW 24.2 mph 32.2 mph N/A   Clear
1:15 AM 26.6 °F 11.1 °F 15.8 °F 64% 29.90 in 10.0 mi SSW 26.5 mph 32.2 mph N/A   Clear
1:35 AM 26.6 °F 11.4 °F 15.8 °F 64% 29.90 in 10.0 mi SSW 25.3 mph 32.2 mph N/A   Clear
1:55 AM 26.6 °F 11.4 °F 15.8 °F 64% 29.90 in 10.0 mi SSW 25.3 mph 31.1 mph N/A   Clear
2:15 AM 28.4 °F 14.1 °F 17.6 °F 64% 29.90 in 10.0 mi SSW 24.2 mph 32.2 mph N/A   Clear
2:35 AM 28.4 °F 13.8 °F 17.6 °F 64% 29.90 in 10.0 mi SSW 25.3 mph 35.7 mph N/A   Clear
2:55 AM 28.4 °F 14.1 °F 17.6 °F 64% 29.90 in 10.0 mi SSW 24.2 mph 31.1 mph N/A   Clear
3:15 AM 28.4 °F 14.4 °F 17.6 °F 64% 29.91 in 10.0 mi SSW 23.0 mph - N/A   Clear
3:35 AM 28.4 °F 14.1 °F 17.6 °F 64% 29.92 in 10.0 mi SSW 24.2 mph 32.2 mph N/A   Clear
3:55 AM 28.4 °F 14.7 °F 17.6 °F 64% 29.91 in 10.0 mi SSW 21.9 mph 28.8 mph N/A   Clear
4:15 AM 28.4 °F 14.7 °F 17.6 °F 64% 29.90 in 10.0 mi SSW 21.9 mph 27.6 mph N/A   Clear
4:35 AM 28.4 °F 13.8 °F 17.6 °F 64% 29.88 in 10.0 mi SSW 25.3 mph - N/A   Clear
4:55 AM 28.4 °F 14.4 °F 17.6 °F 64% 29.88 in 10.0 mi SSW 23.0 mph 29.9 mph N/A   Clear
5:15 AM 26.6 °F 13.4 °F 17.6 °F 69% 29.90 in 10.0 mi SSW 18.4 mph 25.3 mph N/A   Clear
5:35 AM 26.6 °F 15.2 °F 17.6 °F 69% 29.91 in 10.0 mi SSW 13.8 mph 23.0 mph N/A   Clear
5:55 AM 26.6 °F 12.7 °F 17.6 °F 69% 29.89 in 10.0 mi SW 20.7 mph 28.8 mph N/A   Clear
6:35 AM 26.6 °F 13.1 °F 15.8 °F 64% 29.89 in 10.0 mi SW 19.6 mph - N/A   Clear
6:55 AM 26.6 °F 12.4 °F 17.6 °F 69% 29.89 in 10.0 mi SSW 21.9 mph - N/A   Clear
7:15 AM 24.8 °F 11.1 °F 15.8 °F 69% 29.89 in 10.0 mi SW 18.4 mph - N/A   Clear
7:35 AM 24.8 °F 11.1 °F 17.6 °F 74% 29.89 in 10.0 mi SW 18.4 mph - N/A   Clear
7:55 AM 24.8 °F 11.9 °F 15.8 °F 69% 29.90 in 10.0 mi SW 16.1 mph - N/A   Clear
8:15 AM 24.8 °F 12.4 °F 15.8 °F 69% 29.91 in 10.0 mi SW 15.0 mph - N/A   Clear
8:35 AM 24.8 °F 12.4 °F 15.8 °F 69% 29.92 in 10.0 mi SW 15.0 mph - N/A   Clear
8:55 AM 24.8 °F 11.9 °F 15.8 °F 69% 29.92 in 10.0 mi SW 16.1 mph - N/A   Clear
9:15 AM 26.6 °F 14.3 °F 17.6 °F 69% 29.92 in 10.0 mi SW 16.1 mph - N/A   Clear
9:35 AM 26.6 °F 14.7 °F 17.6 °F 69% 29.93 in 10.0 mi SW 15.0 mph - N/A   Clear
9:55 AM 26.6 °F 14.3 °F 17.6 °F 69% 29.96 in 10.0 mi WSW 16.1 mph - N/A   Clear
10:15 AM 26.6 °F 15.7 °F 17.6 °F 69% 29.95 in 10.0 mi SW 12.7 mph - N/A   Clear
10:35 AM 26.6 °F 15.2 °F 17.6 °F 69% 29.96 in 10.0 mi WSW 13.8 mph - N/A   Clear
10:55 AM 26.6 °F 15.2 °F 17.6 °F 69% 29.96 in 10.0 mi WSW 13.8 mph - N/A   Clear
11:15 AM 28.4 °F 17.5 °F 19.4 °F 69% 29.95 in 10.0 mi WSW 13.8 mph - N/A   Clear
11:35 AM 28.4 °F 18.0 °F 19.4 °F 69% 29.94 in 10.0 mi WSW 12.7 mph - N/A   Clear
11:55 AM 28.4 °F 18.5 °F 19.4 °F 69% 29.94 in 10.0 mi WSW 11.5 mph - N/A   Clear
12:15 PM 28.4 °F 18.5 °F 19.4 °F 69% 29.93 in 10.0 mi WSW 11.5 mph - N/A   Clear
12:35 PM 28.4 °F 18.0 °F 19.4 °F 69% 29.93 in 10.0 mi WSW 12.7 mph - N/A   Clear
1:15 PM 30.2 °F 20.8 °F 21.2 °F 69% 29.92 in 10.0 mi West 11.5 mph - N/A   Clear
1:35 PM 30.2 °F 20.2 °F 21.2 °F 69% 29.92 in 10.0 mi West 12.7 mph - N/A   Clear
1:55 PM 30.2 °F 21.3 °F 21.2 °F 69% 29.92 in 10.0 mi WSW 10.4 mph - N/A   Clear
2:15 PM 30.2 °F 20.8 °F 21.2 °F 69% 29.92 in 10.0 mi WSW 11.5 mph - N/A   Clear
2:35 PM 32.0 °F 23.6 °F 21.2 °F 64% 29.93 in 10.0 mi WSW 10.4 mph - N/A   Clear
2:55 PM 32.0 °F 23.6 °F 21.2 °F 64% 29.93 in 10.0 mi WSW 10.4 mph - N/A   Clear
3:15 PM 32.0 °F 24.2 °F 21.2 °F 64% 29.93 in 10.0 mi WSW 9.2 mph - N/A   Clear
3:35 PM 32.0 °F 24.8 °F 21.2 °F 64% 29.94 in 10.0 mi WSW 8.1 mph - N/A   Clear
3:55 PM 30.2 °F 21.3 °F 19.4 °F 64% 29.95 in 10.0 mi WSW 10.4 mph - N/A   Clear
4:15 PM 30.2 °F 22.6 °F 19.4 °F 64% 29.95 in 10.0 mi WSW 8.1 mph - N/A   Clear
4:35 PM 28.4 °F 19.7 °F 19.4 °F 69% 29.95 in 10.0 mi WSW 9.2 mph - N/A   Clear
5:15 PM 26.6 °F 16.8 °F 17.6 °F 69% 29.95 in 10.0 mi WSW 10.4 mph - N/A   Clear
5:35 PM 26.6 °F 16.8 °F 17.6 °F 69% 29.95 in 10.0 mi WSW 10.4 mph - N/A   Clear
5:55 PM 26.6 °F 17.5 °F 17.6 °F 69% 29.96 in 10.0 mi SW 9.2 mph - N/A   Clear
6:15 PM 24.8 °F 16.9 °F 15.8 °F 69% 29.96 in 10.0 mi SW 6.9 mph - N/A   Clear
6:35 PM 23.0 °F 18.4 °F 14.0 °F 68% 29.96 in 10.0 mi WSW 3.5 mph - N/A   Clear
6:55 PM 21.2 °F 16.4 °F 12.2 °F 68% 29.97 in 10.0 mi East 3.5 mph - N/A   Clear
7:15 PM 24.8 °F 17.9 °F 17.6 °F 74% 29.97 in 10.0 mi South 5.8 mph - N/A   Clear
7:35 PM 23.0 °F 13.1 °F 15.8 °F 74% 29.96 in 10.0 mi SW 9.2 mph - N/A   Clear
7:55 PM 21.2 °F 12.6 °F 15.8 °F 80% 29.96 in 10.0 mi SSW 6.9 mph - N/A   Clear
8:15 PM 21.2 °F 13.6 °F 15.8 °F 80% 29.97 in 10.0 mi SSW 5.8 mph - N/A   Clear
8:35 PM 23.0 °F 13.1 °F 17.6 °F 80% 29.96 in 10.0 mi SSW 9.2 mph - N/A   Clear
8:55 PM 23.0 °F 14.7 °F 17.6 °F 80% 29.96 in 10.0 mi SSW 6.9 mph - N/A   Clear
9:15 PM 21.2 °F 13.6 °F 14.0 °F 74% 29.96 in 8.0 mi SSW 5.8 mph - N/A   Clear
9:35 PM 21.2 °F 12.6 °F 15.8 °F 80% 29.96 in 10.0 mi SW 6.9 mph - N/A   Clear
9:55 PM 23.0 °F 14.7 °F 17.6 °F 80% 29.96 in 10.0 mi SW 6.9 mph - N/A   Clear
10:15 PM 19.4 °F 11.5 °F 14.0 °F 80% 29.96 in 10.0 mi SW 5.8 mph - N/A   Clear
10:35 PM 21.2 °F 16.4 °F 15.8 °F 80% 29.96 in 10.0 mi WSW 3.5 mph - N/A   Clear
10:55 PM 21.2 °F 14.9 °F 17.6 °F 86% 29.96 in 10.0 mi SW 4.6 mph - N/A   Clear
11:15 PM 19.4 °F 14.3 °F 12.2 °F 74% 29.95 in 10.0 mi WSW 3.5 mph - N/A   Clear
11:35 PM 21.2 °F 16.4 °F 15.8 °F 80% 29.95 in 10.0 mi SW 3.5 mph - N/A   Clear
11:55 PM 19.4 °F 11.5 °F 12.2 °F 74% 29.94 in 10.0 mi SW 5.8 mph - N/A   Clear